createdAt,value
2023-02-18T00:00:47.358Z,101286.31
2023-02-18T00:03:16.929Z,101289.72
2023-02-18T00:05:46.452Z,101290.03
2023-02-18T00:08:15.905Z,101282.16
2023-02-18T00:10:45.417Z,101278.38
2023-02-18T00:13:17.457Z,101283.28
2023-02-18T00:15:46.955Z,101279.78
2023-02-18T00:18:16.440Z,101286.97
2023-02-18T00:20:45.886Z,101287.03
2023-02-18T00:23:15.334Z,101287.16
2023-02-18T00:25:44.777Z,101277.75
2023-02-18T00:28:16.856Z,101282.50
2023-02-18T00:30:46.477Z,101276.94
2023-02-18T00:33:15.932Z,101275.09
2023-02-18T00:35:45.394Z,101275.31
2023-02-18T00:38:14.868Z,101274.91
2023-02-18T00:40:44.617Z,101279.50
2023-02-18T00:43:16.681Z,101287.53
2023-02-18T00:45:46.124Z,101291.47
2023-02-18T00:48:15.543Z,101287.13
2023-02-18T00:50:45.018Z,101284.34
2023-02-18T00:53:14.585Z,101290.38
2023-02-18T00:55:44.313Z,101293.81
2023-02-18T00:58:13.931Z,101291.34
2023-02-18T01:00:46.007Z,101298.22
2023-02-18T01:03:15.460Z,101284.47
2023-02-18T01:05:45.095Z,101288.56
2023-02-18T01:08:14.725Z,101282.81
2023-02-18T01:10:45.837Z,101283.84
2023-02-18T01:13:15.046Z,101288.31
2023-02-18T01:15:47.177Z,101291.38
2023-02-18T01:18:16.668Z,101294.03
2023-02-18T01:20:46.359Z,101286.38
2023-02-18T01:23:16.314Z,101282.69
2023-02-18T01:25:45.786Z,101283.81
2023-02-18T01:28:15.897Z,101282.00
2023-02-18T01:30:47.930Z,101274.97
2023-02-18T01:33:17.382Z,101275.91
2023-02-18T01:35:46.846Z,101276.19
2023-02-18T01:38:16.277Z,101279.03
2023-02-18T01:40:51.428Z,101271.75
2023-02-18T01:43:21.130Z,101262.22
2023-02-18T01:46:06.443Z,101265.97
2023-02-18T01:48:39.592Z,101257.75
2023-02-18T01:51:12.022Z,101249.88
2023-02-18T01:53:44.091Z,101248.47
2023-02-18T01:56:15.262Z,101239.47
2023-02-18T01:58:44.803Z,101239.25
2023-02-18T02:01:16.798Z,101236.59
2023-02-18T02:03:46.245Z,101235.97
2023-02-18T02:06:18.430Z,101234.16
2023-02-18T02:08:48.157Z,101231.56
2023-02-18T02:11:32.558Z,101229.97
2023-02-18T02:14:22.824Z,101215.41
2023-02-18T02:16:58.279Z,101211.78
2023-02-18T02:20:07.940Z,101211.53
2023-02-18T02:23:15.602Z,101200.75
2023-02-18T02:26:11.683Z,101208.16
2023-02-18T02:29:04.796Z,101205.13
2023-02-18T02:31:59.207Z,101209.06
2023-02-18T02:34:37.364Z,101198.59
2023-02-18T02:37:11.229Z,101203.97
2023-02-18T02:39:42.680Z,101198.00
2023-02-18T02:42:15.972Z,101195.06
2023-02-18T02:44:47.654Z,101185.22
2023-02-18T02:47:20.553Z,101199.47
2023-02-18T02:49:56.462Z,101182.59
2023-02-18T02:52:26.967Z,101178.66
2023-02-18T02:54:56.438Z,101189.59
2023-02-18T02:57:44.714Z,101195.16
2023-02-18T03:00:14.801Z,101188.75
2023-02-18T03:02:50.983Z,101195.16
2023-02-18T03:05:28.145Z,101196.56
2023-02-18T03:08:07.838Z,101186.41
2023-02-18T03:10:46.580Z,101186.28
2023-02-18T03:13:20.105Z,101179.94
2023-02-18T03:15:52.411Z,101192.56
2023-02-18T03:18:24.547Z,101186.38
2023-02-18T03:20:57.777Z,101179.47
2023-02-18T03:23:28.720Z,101181.06
2023-02-18T03:25:58.568Z,101187.53
2023-02-18T03:28:32.131Z,101185.00
2023-02-18T03:31:03.003Z,101181.81
2023-02-18T03:33:33.961Z,101172.41
2023-02-18T03:36:06.771Z,101180.31
2023-02-18T03:38:38.253Z,101172.78
2023-02-18T03:41:07.829Z,101168.03
2023-02-18T03:43:37.334Z,101170.69
2023-02-18T03:46:07.590Z,101173.78
2023-02-18T03:48:37.346Z,101177.78
2023-02-18T03:51:09.400Z,101182.44
2023-02-18T03:53:39.000Z,101175.59
2023-02-18T03:56:09.499Z,101177.16
2023-02-18T03:58:39.210Z,101163.63
2023-02-18T04:01:08.827Z,101157.81
2023-02-18T04:03:38.290Z,101153.88
2023-02-18T04:06:11.044Z,101155.97
2023-02-18T04:08:40.530Z,101160.16
2023-02-18T04:11:09.965Z,101160.41
2023-02-18T04:13:39.393Z,101160.88
2023-02-18T04:16:09.867Z,101150.19
2023-02-18T04:18:39.574Z,101149.34
2023-02-18T04:21:12.310Z,101147.03
2023-02-18T04:23:41.785Z,101143.50
2023-02-18T04:26:11.476Z,101138.03
2023-02-18T04:28:41.108Z,101139.81
2023-02-18T04:31:11.792Z,101130.50
2023-02-18T04:33:41.451Z,101133.63
2023-02-18T04:36:13.625Z,101143.09
2023-02-18T04:38:43.245Z,101151.03
2023-02-18T04:41:12.927Z,101144.34
2023-02-18T04:43:42.386Z,101147.25
2023-02-18T04:46:12.077Z,101146.28
2023-02-18T04:48:41.676Z,101149.03
2023-02-18T04:51:13.760Z,101149.09
2023-02-18T04:53:43.194Z,101143.84
2023-02-18T04:56:12.828Z,101138.59
2023-02-18T04:58:42.309Z,101139.28
2023-02-18T05:01:11.852Z,101128.41
2023-02-18T05:03:41.426Z,101126.78
2023-02-18T05:06:13.443Z,101128.59
2023-02-18T05:08:42.899Z,101138.78
2023-02-18T05:11:12.634Z,101140.34
2023-02-18T05:13:42.108Z,101147.84
2023-02-18T05:16:12.003Z,101146.53
2023-02-18T05:18:41.713Z,101139.13
2023-02-18T05:21:14.156Z,101134.72
2023-02-18T05:23:43.623Z,101126.00
2023-02-18T05:26:13.126Z,101121.47
2023-02-18T05:28:42.771Z,101134.53
2023-02-18T05:31:12.358Z,101128.28
2023-02-18T05:33:41.875Z,101126.44
2023-02-18T05:36:14.019Z,101129.09
2023-02-18T05:38:43.446Z,101127.38
2023-02-18T05:41:12.933Z,101129.00
2023-02-18T05:43:54.709Z,101112.84
2023-02-18T05:46:24.266Z,101116.97
2023-02-18T05:48:53.753Z,101118.59
2023-02-18T05:51:25.998Z,101111.31
2023-02-18T05:53:55.785Z,101115.25
2023-02-18T05:56:25.353Z,101104.41
2023-02-18T05:58:54.819Z,101096.63
2023-02-18T06:01:24.376Z,101102.47
2023-02-18T06:03:53.834Z,101092.50
2023-02-18T06:06:25.938Z,101097.53
2023-02-18T06:08:55.536Z,101096.59
2023-02-18T06:11:25.021Z,101091.22
2023-02-18T06:13:54.465Z,101096.16
2023-02-18T06:16:24.031Z,101098.28
2023-02-18T06:18:53.528Z,101087.41
2023-02-18T06:21:25.626Z,101097.81
2023-02-18T06:23:55.135Z,101097.09
2023-02-18T06:26:24.619Z,101097.28
2023-02-18T06:28:54.154Z,101099.94
2023-02-18T06:31:23.868Z,101100.84
2023-02-18T06:33:53.419Z,101104.34
2023-02-18T06:36:25.518Z,101100.81
2023-02-18T06:38:57.407Z,101114.75
2023-02-18T06:41:27.036Z,101106.56
2023-02-18T06:43:56.493Z,101100.25
2023-02-18T06:46:25.999Z,101110.03
2023-02-18T06:48:55.567Z,101109.38
2023-02-18T06:51:27.640Z,101104.28
2023-02-18T06:53:57.080Z,101098.38
2023-02-18T06:56:26.656Z,101102.47
2023-02-18T06:58:56.136Z,101097.91
2023-02-18T07:01:25.575Z,101105.69
2023-02-18T07:03:55.173Z,101094.34
2023-02-18T07:06:27.272Z,101090.25
2023-02-18T07:08:56.702Z,101092.63
2023-02-18T07:11:28.194Z,101086.50
2023-02-18T07:13:57.744Z,101095.97
2023-02-18T07:16:27.253Z,101093.91
2023-02-18T07:18:56.701Z,101107.75
2023-02-18T07:21:28.785Z,101086.31
2023-02-18T07:23:58.251Z,101093.16
2023-02-18T07:26:27.718Z,101079.38
2023-02-18T07:28:57.176Z,101092.78
2023-02-18T07:31:26.740Z,101083.78
2023-02-18T07:33:56.244Z,101096.72
2023-02-18T07:36:28.332Z,101091.53
2023-02-18T07:38:57.831Z,101092.22
2023-02-18T07:41:27.314Z,101097.06
2023-02-18T07:43:56.765Z,101100.72
2023-02-18T07:46:26.306Z,101083.22
2023-02-18T07:48:55.809Z,101084.09
2023-02-18T07:51:27.879Z,101096.97
2023-02-18T07:53:57.372Z,101090.84
2023-02-18T07:56:26.822Z,101073.38
2023-02-18T07:58:56.310Z,101079.06
2023-02-18T08:01:25.782Z,101077.66
2023-02-18T08:03:55.347Z,101066.34
2023-02-18T08:06:28.539Z,101074.50
2023-02-18T08:08:58.014Z,101062.44
2023-02-18T08:11:27.504Z,101062.00
2023-02-18T08:13:56.964Z,101069.00
2023-02-18T08:16:26.533Z,101064.84
2023-02-18T08:18:56.487Z,101068.69
2023-02-18T08:21:28.770Z,101074.56
2023-02-18T08:23:58.232Z,101074.94
2023-02-18T08:26:27.766Z,101066.47
2023-02-18T08:28:57.233Z,101068.75
2023-02-18T08:31:27.779Z,101069.00
2023-02-18T08:33:57.876Z,101077.91
2023-02-18T08:36:30.506Z,101086.97
2023-02-18T08:39:00.404Z,101093.50
2023-02-18T08:41:29.879Z,101088.06
2023-02-18T08:43:59.345Z,101089.13
2023-02-18T08:46:35.171Z,101101.94
2023-02-18T08:49:05.494Z,101099.78
2023-02-18T08:51:37.729Z,101093.13
2023-02-18T08:54:07.635Z,101092.09
2023-02-18T08:56:37.033Z,101090.34
2023-02-18T08:59:06.515Z,101081.94
2023-02-18T09:01:36.107Z,101077.41
2023-02-18T09:04:05.663Z,101069.78
2023-02-18T09:06:40.067Z,101073.66
2023-02-18T09:09:10.320Z,101066.63
2023-02-18T09:11:39.813Z,101072.88
2023-02-18T09:14:09.292Z,101076.44
2023-02-18T09:16:38.870Z,101081.59
2023-02-18T09:19:08.394Z,101078.06
2023-02-18T09:21:40.458Z,101089.09
2023-02-18T09:24:10.427Z,101076.31
2023-02-18T09:26:39.874Z,101070.00
2023-02-18T09:29:09.469Z,101072.19
2023-02-18T09:31:39.484Z,101087.22
2023-02-18T09:34:09.063Z,101079.44
2023-02-18T09:36:41.615Z,101067.19
2023-02-18T09:39:12.979Z,101077.41
2023-02-18T09:41:44.481Z,101049.19
2023-02-18T09:44:16.121Z,101079.03
2023-02-18T09:46:48.800Z,101088.34
2023-02-18T09:49:22.762Z,101078.03
2023-02-18T09:51:54.916Z,101085.53
2023-02-18T09:54:24.622Z,101080.94
2023-02-18T09:56:54.075Z,101087.69
2023-02-18T09:59:24.346Z,101087.84
2023-02-18T10:01:54.874Z,101086.63
2023-02-18T10:04:25.915Z,101084.75
2023-02-18T10:06:57.986Z,101100.41
2023-02-18T10:09:30.339Z,101097.59
2023-02-18T10:12:00.908Z,101099.41
2023-02-18T10:14:31.722Z,101082.38
2023-02-18T10:17:01.121Z,101082.81
2023-02-18T10:19:32.589Z,101077.47
2023-02-18T10:22:05.064Z,101076.13
2023-02-18T10:24:35.191Z,101075.44
2023-02-18T10:27:06.245Z,101070.50
2023-02-18T10:29:35.529Z,101070.06
2023-02-18T10:32:09.083Z,101077.72
2023-02-18T10:34:43.924Z,101059.75
2023-02-18T10:37:39.093Z,101069.28
2023-02-18T10:40:12.730Z,101067.41
2023-02-18T10:42:48.146Z,101062.91
2023-02-18T10:45:24.278Z,101055.63
2023-02-18T10:47:58.175Z,101066.00
2023-02-18T10:50:30.165Z,101050.63
2023-02-18T10:53:05.992Z,101051.06
2023-02-18T10:55:39.645Z,101060.78
2023-02-18T10:58:27.204Z,101047.88
2023-02-18T11:00:56.742Z,101040.59
2023-02-18T11:03:26.846Z,101027.91
2023-02-18T11:05:58.054Z,101012.88
2023-02-18T11:08:30.723Z,101015.53
2023-02-18T11:11:00.249Z,101016.41
2023-02-18T11:13:31.801Z,101017.84
2023-02-18T11:16:04.274Z,101021.78
2023-02-18T11:18:40.384Z,101002.91
2023-02-18T11:21:24.125Z,101009.03
2023-02-18T11:23:58.117Z,101002.94
2023-02-18T11:26:30.890Z,101026.88
2023-02-18T11:29:03.929Z,101005.13
2023-02-18T11:31:47.177Z,101000.06
2023-02-18T11:34:18.868Z,101011.66
2023-02-18T11:36:48.372Z,101021.25
2023-02-18T11:39:24.724Z,101021.53
2023-02-18T11:41:57.788Z,101021.13
2023-02-18T11:44:30.558Z,101004.47
2023-02-18T11:47:01.813Z,101006.88
2023-02-18T11:49:31.881Z,101009.91
2023-02-18T11:52:07.467Z,101013.19
2023-02-18T11:54:39.489Z,101001.19
2023-02-18T11:57:09.761Z,100981.69
2023-02-18T11:59:40.128Z,100991.75
2023-02-18T12:02:22.780Z,100973.34
2023-02-18T12:04:53.878Z,100984.19
2023-02-18T12:07:23.484Z,100975.66
2023-02-18T12:09:57.452Z,100961.19
2023-02-18T12:12:29.296Z,100948.34
2023-02-18T12:14:58.852Z,100956.63
2023-02-18T12:17:43.810Z,100939.16
2023-02-18T12:20:26.511Z,100935.63
2023-02-18T12:22:57.744Z,100939.50
2023-02-18T12:25:38.145Z,100919.53
2023-02-18T12:28:21.211Z,100910.59
2023-02-18T12:31:38.402Z,100923.16
2023-02-18T12:34:20.185Z,100898.13
2023-02-18T12:36:56.876Z,100919.16
2023-02-18T12:39:35.682Z,100921.81
2023-02-18T12:42:21.917Z,100916.09
2023-02-18T12:45:03.313Z,100921.88
2023-02-18T12:47:37.692Z,100906.34
2023-02-18T12:50:29.888Z,100893.47
2023-02-18T12:53:07.997Z,100897.19
2023-02-18T12:55:46.667Z,100907.22
2023-02-18T12:58:24.867Z,100894.78
2023-02-18T13:01:05.292Z,100912.13
2023-02-18T13:04:14.921Z,100901.66
2023-02-18T13:06:56.852Z,100918.72
2023-02-18T13:09:31.027Z,100918.97
2023-02-18T13:12:02.179Z,100927.22
2023-02-18T13:14:34.639Z,100938.69
2023-02-18T13:17:04.330Z,100931.53
2023-02-18T13:19:35.456Z,100942.56
2023-02-18T13:22:06.886Z,100950.78
2023-02-18T13:24:37.188Z,100956.72
2023-02-18T13:27:12.148Z,100957.50
2023-02-18T13:29:47.514Z,100949.31
2023-02-18T13:32:19.799Z,100954.03
2023-02-18T13:34:51.222Z,100949.34
2023-02-18T13:37:25.011Z,100948.69
2023-02-18T13:39:56.007Z,100961.56
2023-02-18T13:42:35.568Z,100962.34
2023-02-18T13:45:23.999Z,100965.81
2023-02-18T13:47:53.402Z,100967.28
2023-02-18T13:50:41.637Z,100961.13
2023-02-18T13:53:27.656Z,100963.13
2023-02-18T13:56:04.533Z,100970.09
2023-02-18T13:58:43.887Z,100956.81
2023-02-18T14:01:27.082Z,100972.13
2023-02-18T14:03:58.543Z,100958.84
2023-02-18T14:06:28.993Z,100981.34
2023-02-18T14:09:29.231Z,100968.84
2023-02-18T14:11:58.736Z,100972.72
2023-02-18T14:14:40.078Z,100975.19
2023-02-18T14:17:33.634Z,100970.84
2023-02-18T14:20:35.824Z,100969.72
2023-02-18T14:23:34.128Z,100963.22
2023-02-18T14:26:10.406Z,100968.03
2023-02-18T14:28:42.192Z,100968.06
2023-02-18T14:31:30.212Z,100967.84
2023-02-18T14:34:15.948Z,100966.41
2023-02-18T14:36:48.261Z,100960.44
2023-02-18T14:39:29.496Z,100948.44
2023-02-18T14:42:02.838Z,100946.34
2023-02-18T14:44:39.824Z,100957.75
2023-02-18T14:47:17.757Z,100959.75
2023-02-18T14:49:47.509Z,100957.66
2023-02-18T14:52:22.940Z,100965.19
2023-02-18T14:54:52.393Z,100967.00
2023-02-18T14:57:34.791Z,100958.06
2023-02-18T15:00:05.328Z,100952.28
2023-02-18T15:02:38.726Z,100962.16
2023-02-18T15:05:15.650Z,100965.38
2023-02-18T15:07:45.072Z,100972.13
2023-02-18T15:10:16.686Z,100973.19
2023-02-18T15:12:48.728Z,100967.09
2023-02-18T15:15:18.771Z,100957.88
2023-02-18T15:17:49.038Z,100963.63
2023-02-18T15:20:18.501Z,100958.47
2023-02-18T15:22:48.156Z,100973.81
2023-02-18T15:25:17.656Z,100961.94
2023-02-18T15:27:49.714Z,100968.91
2023-02-18T15:30:24.658Z,100959.56
2023-02-18T15:32:54.623Z,100966.03
2023-02-18T15:35:25.075Z,100963.38
2023-02-18T15:37:55.886Z,100963.16
2023-02-18T15:40:25.471Z,100960.84
2023-02-18T15:42:59.270Z,100971.81
2023-02-18T15:45:32.208Z,100963.13
2023-02-18T15:48:01.977Z,100968.50
2023-02-18T15:50:32.722Z,100969.03
2023-02-18T15:53:10.627Z,100957.72
2023-02-18T15:55:41.108Z,100967.22
2023-02-18T15:58:15.984Z,100961.69
2023-02-18T16:00:50.005Z,100959.28
2023-02-18T16:03:22.719Z,100973.63
2023-02-18T16:05:52.248Z,100968.72
2023-02-18T16:08:27.217Z,100972.84
2023-02-18T16:10:57.517Z,100968.19
2023-02-18T16:13:31.386Z,100972.63
2023-02-18T16:16:01.407Z,100970.91
2023-02-18T16:18:32.808Z,100968.03
2023-02-18T16:21:04.397Z,100966.41
2023-02-18T16:23:37.532Z,100959.16
2023-02-18T16:26:24.274Z,100966.06
2023-02-18T16:28:56.796Z,100967.16
2023-02-18T16:31:26.712Z,100974.91
2023-02-18T16:33:56.210Z,100978.00
2023-02-18T16:36:29.053Z,100981.91
2023-02-18T16:38:58.797Z,100971.56
2023-02-18T16:41:28.374Z,100978.66
2023-02-18T16:44:00.455Z,100986.06
2023-02-18T16:46:31.498Z,100991.28
2023-02-18T16:49:00.719Z,100995.28
2023-02-18T16:51:32.667Z,100994.84
2023-02-18T16:54:02.139Z,100990.75
2023-02-18T16:56:33.706Z,101004.59
2023-02-18T16:59:05.811Z,100997.34
2023-02-18T17:01:38.217Z,100987.09
2023-02-18T17:04:08.364Z,100997.00
2023-02-18T17:06:37.932Z,100998.25
2023-02-18T17:09:18.273Z,100993.66
2023-02-18T17:11:48.070Z,100998.16
2023-02-18T17:14:20.708Z,101004.25
2023-02-18T17:16:50.934Z,101011.91
2023-02-18T17:19:20.507Z,101010.19
2023-02-18T17:21:50.267Z,101017.56
2023-02-18T17:24:20.639Z,101018.94
2023-02-18T17:26:50.274Z,101014.28
2023-02-18T17:29:22.622Z,101028.16
2023-02-18T17:31:52.191Z,101016.13
2023-02-18T17:34:23.639Z,101027.91
2023-02-18T17:36:53.168Z,101022.25
2023-02-18T17:39:22.822Z,101022.63
2023-02-18T17:41:52.380Z,101026.47
2023-02-18T17:44:26.076Z,101029.38
2023-02-18T17:46:55.530Z,101029.88
2023-02-18T17:49:25.111Z,101031.47
2023-02-18T17:51:56.717Z,101038.16
2023-02-18T17:54:28.360Z,101036.13
2023-02-18T17:56:58.265Z,101036.19
2023-02-18T17:59:30.723Z,101032.09
2023-02-18T18:02:00.212Z,101039.63
2023-02-18T18:04:29.857Z,101035.59
2023-02-18T18:06:59.361Z,101041.81
2023-02-18T18:09:28.836Z,101040.84
2023-02-18T18:11:58.294Z,101038.66
2023-02-18T18:14:30.392Z,101035.94
2023-02-18T18:17:00.492Z,101035.44
2023-02-18T18:19:30.369Z,101029.28
2023-02-18T18:21:59.828Z,101043.56
2023-02-18T18:24:29.527Z,101038.66
2023-02-18T18:26:59.095Z,101031.91
2023-02-18T18:29:31.533Z,101053.59
2023-02-18T18:32:01.045Z,101044.25
2023-02-18T18:34:33.226Z,101043.13
2023-02-18T18:37:02.739Z,101053.88
2023-02-18T18:39:32.217Z,101045.69
2023-02-18T18:42:02.141Z,101041.16
2023-02-18T18:44:34.229Z,101041.34
2023-02-18T18:47:03.726Z,101034.81
2023-02-18T18:49:33.194Z,101047.53
2023-02-18T18:52:02.803Z,101042.28
2023-02-18T18:54:32.287Z,101037.56
2023-02-18T18:57:02.004Z,101047.22
2023-02-18T18:59:34.244Z,101032.59
2023-02-18T19:02:03.814Z,101032.97
2023-02-18T19:04:33.453Z,101029.44
2023-02-18T19:07:02.946Z,101033.03
2023-02-18T19:09:32.412Z,101040.53
2023-02-18T19:12:01.879Z,101027.13
2023-02-18T19:14:34.055Z,101039.19
2023-02-18T19:17:03.496Z,101046.59
2023-02-18T19:19:35.312Z,101048.84
2023-02-18T19:22:04.994Z,101037.19
2023-02-18T19:24:34.886Z,101046.84
2023-02-18T19:27:10.305Z,101034.91
2023-02-18T19:29:44.080Z,101039.97
2023-02-18T19:32:14.932Z,101046.91
2023-02-18T19:34:46.777Z,101042.75
2023-02-18T19:37:16.843Z,101041.66
2023-02-18T19:39:46.412Z,101035.66
2023-02-18T19:42:15.863Z,101029.34
2023-02-18T19:44:47.916Z,101036.41
2023-02-18T19:47:17.404Z,101027.38
2023-02-18T19:49:47.070Z,101024.44
2023-02-18T19:52:16.519Z,101025.69
2023-02-18T19:54:45.970Z,101028.56
2023-02-18T19:57:15.854Z,101023.78
2023-02-18T19:59:48.602Z,101018.41
2023-02-18T20:02:19.641Z,101028.53
2023-02-18T20:04:48.857Z,101021.41
2023-02-18T20:07:18.853Z,101021.72
2023-02-18T20:09:48.435Z,101013.50
2023-02-18T20:12:18.011Z,101007.03
2023-02-18T20:14:53.547Z,101015.50
2023-02-18T20:17:23.016Z,101013.91
2023-02-18T20:19:52.506Z,101009.28
2023-02-18T20:22:22.016Z,101005.91
2023-02-18T20:24:51.622Z,101012.09
2023-02-18T20:27:21.036Z,101009.28
2023-02-18T20:29:53.992Z,101012.19
2023-02-18T20:32:23.487Z,101014.13
2023-02-18T20:34:53.037Z,101002.50
2023-02-18T20:37:22.466Z,100999.47
2023-02-18T20:39:51.936Z,100992.91
2023-02-18T20:42:21.488Z,101001.66
2023-02-18T20:44:53.615Z,100994.03
2023-02-18T20:47:23.018Z,101003.25
2023-02-18T20:49:52.456Z,100985.66
2023-02-18T20:52:21.904Z,100983.94
2023-02-18T20:54:51.434Z,100974.91
2023-02-18T20:57:20.947Z,100972.91
2023-02-18T20:59:53.067Z,100974.97
2023-02-18T21:02:22.567Z,100971.75
2023-02-18T21:04:52.031Z,100973.50
2023-02-18T21:07:22.421Z,100983.50
2023-02-18T21:09:52.096Z,100975.22
2023-02-18T21:12:21.658Z,100980.28
2023-02-18T21:14:53.754Z,100982.22
2023-02-18T21:17:23.248Z,100978.66
2023-02-18T21:19:52.730Z,100972.19
2023-02-18T21:22:22.195Z,100969.88
2023-02-18T21:24:52.788Z,100969.78
2023-02-18T21:27:22.416Z,100968.69
2023-02-18T21:29:55.027Z,100974.84
2023-02-18T21:32:24.573Z,100971.31
2023-02-18T21:34:54.823Z,100966.31
2023-02-18T21:37:24.370Z,100961.50
2023-02-18T21:39:53.924Z,100952.25
2023-02-18T21:42:23.453Z,100948.66
2023-02-18T21:44:56.528Z,100955.53
2023-02-18T21:47:26.031Z,100941.28
2023-02-18T21:49:55.498Z,100941.53
2023-02-18T21:52:25.185Z,100942.78
2023-02-18T21:54:54.637Z,100935.00
2023-02-18T21:57:24.543Z,100939.09
2023-02-18T21:59:56.720Z,100936.81
2023-02-18T22:02:27.174Z,100932.59
2023-02-18T22:04:56.739Z,100926.78
2023-02-18T22:07:27.760Z,100911.91
2023-02-18T22:09:57.251Z,100919.41
2023-02-18T22:12:26.922Z,100914.13
2023-02-18T22:14:58.957Z,100907.91
2023-02-18T22:17:29.840Z,100908.00
2023-02-18T22:19:59.256Z,100905.91
2023-02-18T22:22:28.744Z,100909.25
2023-02-18T22:24:58.205Z,100907.16
2023-02-18T22:27:27.968Z,100904.47
2023-02-18T22:30:00.042Z,100898.16
2023-02-18T22:32:31.923Z,100899.53
2023-02-18T22:35:01.471Z,100902.75
2023-02-18T22:37:31.832Z,100901.84
2023-02-18T22:40:01.314Z,100904.13
2023-02-18T22:42:30.798Z,100906.69
2023-02-18T22:45:03.742Z,100907.13
2023-02-18T22:47:33.232Z,100894.75
2023-02-18T22:50:02.917Z,100899.78
2023-02-18T22:52:32.416Z,100888.31
2023-02-18T22:55:01.841Z,100902.56
2023-02-18T22:57:31.446Z,100898.84
2023-02-18T23:00:03.481Z,100894.25
2023-02-18T23:02:33.025Z,100897.72
2023-02-18T23:05:05.250Z,100891.59
2023-02-18T23:07:34.726Z,100881.00
2023-02-18T23:10:04.164Z,100874.34
2023-02-18T23:12:33.609Z,100871.94
2023-02-18T23:15:05.696Z,100870.66
2023-02-18T23:17:35.153Z,100869.63
2023-02-18T23:20:04.601Z,100874.91
2023-02-18T23:22:35.509Z,100874.50
2023-02-18T23:25:05.034Z,100876.72
2023-02-18T23:27:34.482Z,100885.03
2023-02-18T23:30:07.264Z,100869.63
2023-02-18T23:32:38.913Z,100881.59
2023-02-18T23:35:09.305Z,100877.59
2023-02-18T23:38:02.860Z,100880.00
2023-02-18T23:40:32.313Z,100886.38
2023-02-18T23:43:01.765Z,100878.78
2023-02-18T23:45:33.800Z,100883.06
2023-02-18T23:48:03.251Z,100870.09
2023-02-18T23:50:32.693Z,100867.50
2023-02-18T23:53:02.135Z,100860.69
2023-02-18T23:55:31.601Z,100862.91
2023-02-18T23:58:01.079Z,100863.34
